sensor_id;sensor_type;location;lat;lon;timestamp;temperature;humidity
27747;DHT22;15138;51.012;4.692;2022-12-31T00:01:01;14.40;99.90
27747;DHT22;15138;51.012;4.692;2022-12-31T00:03:29;14.20;99.90
27747;DHT22;15138;51.012;4.692;2022-12-31T00:08:25;14.30;99.90
27747;DHT22;15138;51.012;4.692;2022-12-31T00:13:23;14.20;99.90
27747;DHT22;15138;51.012;4.692;2022-12-31T00:18:19;14.10;99.90
27747;DHT22;15138;51.012;4.692;2022-12-31T00:25:43;14.40;99.90
27747;DHT22;15138;51.012;4.692;2022-12-31T00:28:11;14.40;99.90
27747;DHT22;15138;51.012;4.692;2022-12-31T00:30:40;14.40;99.90
27747;DHT22;15138;51.012;4.692;2022-12-31T00:33:08;14.50;99.90
27747;DHT22;15138;51.012;4.692;2022-12-31T00:35:36;14.30;99.90
27747;DHT22;15138;51.012;4.692;2022-12-31T00:38:04;14.30;99.90
27747;DHT22;15138;51.012;4.692;2022-12-31T00:40:32;14.40;99.90
27747;DHT22;15138;51.012;4.692;2022-12-31T00:43:00;14.40;99.90
27747;DHT22;15138;51.012;4.692;2022-12-31T00:45:27;14.30;99.90
27747;DHT22;15138;51.012;4.692;2022-12-31T00:50:25;14.50;99.90
27747;DHT22;15138;51.012;4.692;2022-12-31T01:00:17;14.80;99.90
27747;DHT22;15138;51.012;4.692;2022-12-31T01:02:45;14.70;99.90
27747;DHT22;15138;51.012;4.692;2022-12-31T01:05:13;14.80;99.90
27747;DHT22;15138;51.012;4.692;2022-12-31T01:07:42;14.90;99.90
27747;DHT22;15138;51.012;4.692;2022-12-31T01:10:10;15.00;99.90
27747;DHT22;15138;51.012;4.692;2022-12-31T01:15:06;15.50;99.90
27747;DHT22;15138;51.012;4.692;2022-12-31T01:17:34;15.20;99.90
27747;DHT22;15138;51.012;4.692;2022-12-31T01:20:02;15.30;99.90
27747;DHT22;15138;51.012;4.692;2022-12-31T01:22:30;15.30;99.90
27747;DHT22;15138;51.012;4.692;2022-12-31T01:24:59;15.20;99.90
27747;DHT22;15138;51.012;4.692;2022-12-31T01:27:27;15.20;99.90
27747;DHT22;15138;51.012;4.692;2022-12-31T01:29:55;15.10;99.90
27747;DHT22;15138;51.012;4.692;2022-12-31T01:34:51;14.40;99.90
27747;DHT22;15138;51.012;4.692;2022-12-31T01:37:19;14.20;99.90
27747;DHT22;15138;51.012;4.692;2022-12-31T01:39:47;14.10;99.90
27747;DHT22;15138;51.012;4.692;2022-12-31T01:42:16;14.10;99.90
27747;DHT22;15138;51.012;4.692;2022-12-31T01:44:54;14.00;99.90
27747;DHT22;15138;51.012;4.692;2022-12-31T01:47:26;14.10;99.90
27747;DHT22;15138;51.012;4.692;2022-12-31T01:49:58;13.90;99.90
27747;DHT22;15138;51.012;4.692;2022-12-31T01:52:28;13.80;99.90
27747;DHT22;15138;51.012;4.692;2022-12-31T01:54:58;13.80;99.90
27747;DHT22;15138;51.012;4.692;2022-12-31T01:57:28;13.40;99.90
27747;DHT22;15138;51.012;4.692;2022-12-31T01:59:56;13.70;99.90
27747;DHT22;15138;51.012;4.692;2022-12-31T02:02:25;13.70;99.90
27747;DHT22;15138;51.012;4.692;2022-12-31T02:04:54;13.70;99.90
27747;DHT22;15138;51.012;4.692;2022-12-31T02:07:23;13.60;99.90
27747;DHT22;15138;51.012;4.692;2022-12-31T02:09:51;13.60;99.90
27747;DHT22;15138;51.012;4.692;2022-12-31T02:12:20;13.60;99.90
27747;DHT22;15138;51.012;4.692;2022-12-31T02:14:50;13.60;99.90
27747;DHT22;15138;51.012;4.692;2022-12-31T02:17:22;13.60;99.90
27747;DHT22;15138;51.012;4.692;2022-12-31T02:20:02;13.60;99.90
27747;DHT22;15138;51.012;4.692;2022-12-31T02:22:40;13.60;99.90
27747;DHT22;15138;51.012;4.692;2022-12-31T02:28:01;13.70;99.90
27747;DHT22;15138;51.012;4.692;2022-12-31T02:33:08;13.90;99.90
27747;DHT22;15138;51.012;4.692;2022-12-31T02:35:41;14.20;99.90
27747;DHT22;15138;51.012;4.692;2022-12-31T02:38:13;14.30;99.90
27747;DHT22;15138;51.012;4.692;2022-12-31T02:48:15;14.60;99.90
27747;DHT22;15138;51.012;4.692;2022-12-31T02:50:49;14.80;99.90
27747;DHT22;15138;51.012;4.692;2022-12-31T02:53:25;14.60;99.90
27747;DHT22;15138;51.012;4.692;2022-12-31T02:55:58;14.80;99.90
27747;DHT22;15138;51.012;4.692;2022-12-31T02:58:28;14.70;99.90
27747;DHT22;15138;51.012;4.692;2022-12-31T03:01:12;14.90;99.90
27747;DHT22;15138;51.012;4.692;2022-12-31T03:04:01;14.90;99.90
27747;DHT22;15138;51.012;4.692;2022-12-31T03:06:51;15.00;99.90
27747;DHT22;15138;51.012;4.692;2022-12-31T03:09:20;14.90;99.90
27747;DHT22;15138;51.012;4.692;2022-12-31T03:11:47;15.00;99.90
27747;DHT22;15138;51.012;4.692;2022-12-31T03:14:47;14.90;99.90
27747;DHT22;15138;51.012;4.692;2022-12-31T03:17:15;14.90;99.90
27747;DHT22;15138;51.012;4.692;2022-12-31T03:19:45;14.90;99.90
27747;DHT22;15138;51.012;4.692;2022-12-31T03:22:31;15.00;99.90
27747;DHT22;15138;51.012;4.692;2022-12-31T03:24:59;15.10;99.90
27747;DHT22;15138;51.012;4.692;2022-12-31T03:27:45;15.30;99.90
27747;DHT22;15138;51.012;4.692;2022-12-31T03:30:14;15.20;99.90
27747;DHT22;15138;51.012;4.692;2022-12-31T03:32:43;15.30;99.90
27747;DHT22;15138;51.012;4.692;2022-12-31T03:35:13;15.30;99.90
27747;DHT22;15138;51.012;4.692;2022-12-31T03:37:41;15.20;99.90
27747;DHT22;15138;51.012;4.692;2022-12-31T03:42:37;15.40;99.90
27747;DHT22;15138;51.012;4.692;2022-12-31T03:45:06;15.50;99.90
27747;DHT22;15138;51.012;4.692;2022-12-31T03:47:34;15.50;99.90
27747;DHT22;15138;51.012;4.692;2022-12-31T03:52:31;15.60;99.90
27747;DHT22;15138;51.012;4.692;2022-12-31T03:54:59;15.60;99.90
27747;DHT22;15138;51.012;4.692;2022-12-31T03:57:27;15.60;99.90
27747;DHT22;15138;51.012;4.692;2022-12-31T03:59:55;15.60;99.90
27747;DHT22;15138;51.012;4.692;2022-12-31T04:02:23;15.80;99.90
27747;DHT22;15138;51.012;4.692;2022-12-31T04:04:55;15.80;99.90
27747;DHT22;15138;51.012;4.692;2022-12-31T04:07:22;15.90;99.90
27747;DHT22;15138;51.012;4.692;2022-12-31T04:12:21;15.90;90.60
27747;DHT22;15138;51.012;4.692;2022-12-31T04:14:49;15.90;93.30
27747;DHT22;15138;51.012;4.692;2022-12-31T04:17:17;15.90;72.50
27747;DHT22;15138;51.012;4.692;2022-12-31T04:19:45;15.80;82.80
27747;DHT22;15138;51.012;4.692;2022-12-31T04:22:13;15.90;66.60
27747;DHT22;15138;51.012;4.692;2022-12-31T04:24:41;16.00;60.90
27747;DHT22;15138;51.012;4.692;2022-12-31T04:27:09;16.00;45.90
27747;DHT22;15138;51.012;4.692;2022-12-31T04:29:39;15.90;34.20
27747;DHT22;15138;51.012;4.692;2022-12-31T04:32:07;16.10;14.50
27747;DHT22;15138;51.012;4.692;2022-12-31T04:34:35;15.80;20.70
27747;DHT22;15138;51.012;4.692;2022-12-31T04:37:03;16.00;7.10
27747;DHT22;15138;51.012;4.692;2022-12-31T04:39:30;16.10;1.00
27747;DHT22;15138;51.012;4.692;2022-12-31T04:41:58;16.10;1.00
27747;DHT22;15138;51.012;4.692;2022-12-31T04:44:26;16.00;7.10
27747;DHT22;15138;51.012;4.692;2022-12-31T04:46:55;16.00;16.30
27747;DHT22;15138;51.012;4.692;2022-12-31T04:49:23;16.20;38.50
27747;DHT22;15138;51.012;4.692;2022-12-31T04:51:51;16.00;57.50
27747;DHT22;15138;51.012;4.692;2022-12-31T04:54:19;16.00;45.00
27747;DHT22;15138;51.012;4.692;2022-12-31T04:56:47;15.90;87.10
27747;DHT22;15138;51.012;4.692;2022-12-31T04:59:15;16.10;92.00
27747;DHT22;15138;51.012;4.692;2022-12-31T05:01:43;15.90;60.80
27747;DHT22;15138;51.012;4.692;2022-12-31T05:04:12;15.90;68.80
27747;DHT22;15138;51.012;4.692;2022-12-31T05:06:40;15.80;66.20
27747;DHT22;15138;51.012;4.692;2022-12-31T05:09:08;15.90;50.40
27747;DHT22;15138;51.012;4.692;2022-12-31T05:11:36;15.90;32.50
27747;DHT22;15138;51.012;4.692;2022-12-31T05:14:04;16.20;1.00
27747;DHT22;15138;51.012;4.692;2022-12-31T05:16:32;16.00;1.00
27747;DHT22;15138;51.012;4.692;2022-12-31T05:19:00;16.30;1.00
27747;DHT22;15138;51.012;4.692;2022-12-31T05:21:31;16.20;1.00
27747;DHT22;15138;51.012;4.692;2022-12-31T05:23:59;16.40;1.00
27747;DHT22;15138;51.012;4.692;2022-12-31T05:26:27;16.30;1.00
27747;DHT22;15138;51.012;4.692;2022-12-31T05:28:55;16.40;1.00
27747;DHT22;15138;51.012;4.692;2022-12-31T05:31:25;16.40;1.00
27747;DHT22;15138;51.012;4.692;2022-12-31T05:33:53;16.40;1.00
27747;DHT22;15138;51.012;4.692;2022-12-31T05:36:21;16.50;1.00
27747;DHT22;15138;51.012;4.692;2022-12-31T05:38:50;16.50;99.90
27747;DHT22;15138;51.012;4.692;2022-12-31T05:43:46;16.50;99.90
27747;DHT22;15138;51.012;4.692;2022-12-31T05:46:14;16.50;99.90
27747;DHT22;15138;51.012;4.692;2022-12-31T05:48:42;16.40;99.90
27747;DHT22;15138;51.012;4.692;2022-12-31T05:51:10;16.50;99.90
27747;DHT22;15138;51.012;4.692;2022-12-31T05:53:38;16.70;99.90
27747;DHT22;15138;51.012;4.692;2022-12-31T05:56:07;16.80;99.90
27747;DHT22;15138;51.012;4.692;2022-12-31T05:58:35;16.70;99.90
27747;DHT22;15138;51.012;4.692;2022-12-31T06:01:03;16.50;99.90
27747;DHT22;15138;51.012;4.692;2022-12-31T06:03:31;16.60;99.90
27747;DHT22;15138;51.012;4.692;2022-12-31T06:06:00;16.60;99.90
27747;DHT22;15138;51.012;4.692;2022-12-31T06:08:27;16.70;99.90
27747;DHT22;15138;51.012;4.692;2022-12-31T06:10:55;16.60;99.90
27747;DHT22;15138;51.012;4.692;2022-12-31T06:13:25;16.50;99.90
27747;DHT22;15138;51.012;4.692;2022-12-31T06:15:53;16.50;99.90
27747;DHT22;15138;51.012;4.692;2022-12-31T06:18:21;16.50;99.90
27747;DHT22;15138;51.012;4.692;2022-12-31T06:20:49;16.50;99.90
27747;DHT22;15138;51.012;4.692;2022-12-31T06:23:17;16.50;99.90
27747;DHT22;15138;51.012;4.692;2022-12-31T06:25:44;16.50;99.90
27747;DHT22;15138;51.012;4.692;2022-12-31T06:28:12;16.50;99.90
27747;DHT22;15138;51.012;4.692;2022-12-31T06:30:47;16.50;99.90
27747;DHT22;15138;51.012;4.692;2022-12-31T06:33:15;16.50;99.90
27747;DHT22;15138;51.012;4.692;2022-12-31T06:35:42;16.30;99.90
27747;DHT22;15138;51.012;4.692;2022-12-31T06:38:10;16.30;99.90
27747;DHT22;15138;51.012;4.692;2022-12-31T06:40:38;16.30;99.90
27747;DHT22;15138;51.012;4.692;2022-12-31T06:43:06;16.30;99.90
27747;DHT22;15138;51.012;4.692;2022-12-31T06:45:34;16.30;99.90
27747;DHT22;15138;51.012;4.692;2022-12-31T06:48:04;16.30;99.90
27747;DHT22;15138;51.012;4.692;2022-12-31T06:50:32;16.30;99.90
27747;DHT22;15138;51.012;4.692;2022-12-31T06:52:59;16.30;99.90
27747;DHT22;15138;51.012;4.692;2022-12-31T06:55:27;16.30;99.90
27747;DHT22;15138;51.012;4.692;2022-12-31T06:57:56;16.60;99.90
27747;DHT22;15138;51.012;4.692;2022-12-31T07:00:24;16.30;99.90
27747;DHT22;15138;51.012;4.692;2022-12-31T07:03:06;16.30;99.90
27747;DHT22;15138;51.012;4.692;2022-12-31T07:05:41;16.30;99.90
27747;DHT22;15138;51.012;4.692;2022-12-31T07:08:18;16.20;99.90
27747;DHT22;15138;51.012;4.692;2022-12-31T07:10:49;16.30;99.90
27747;DHT22;15138;51.012;4.692;2022-12-31T07:13:40;16.30;99.90
27747;DHT22;15138;51.012;4.692;2022-12-31T07:16:13;16.30;99.90
27747;DHT22;15138;51.012;4.692;2022-12-31T07:18:44;16.40;99.90
27747;DHT22;15138;51.012;4.692;2022-12-31T07:21:14;16.30;1.00
27747;DHT22;15138;51.012;4.692;2022-12-31T07:23:42;16.10;1.00
27747;DHT22;15138;51.012;4.692;2022-12-31T07:26:12;15.90;1.00
27747;DHT22;15138;51.012;4.692;2022-12-31T07:28:46;15.80;21.30
27747;DHT22;15138;51.012;4.692;2022-12-31T07:31:19;15.80;29.30
27747;DHT22;15138;51.012;4.692;2022-12-31T07:33:57;15.80;57.90
27747;DHT22;15138;51.012;4.692;2022-12-31T07:36:28;15.80;45.50
27747;DHT22;15138;51.012;4.692;2022-12-31T07:38:59;15.80;30.70
27747;DHT22;15138;51.012;4.692;2022-12-31T07:41:35;15.90;20.10
27747;DHT22;15138;51.012;4.692;2022-12-31T07:44:06;15.80;33.80
27747;DHT22;15138;51.012;4.692;2022-12-31T07:46:37;15.70;26.60
27747;DHT22;15138;51.012;4.692;2022-12-31T07:49:10;15.80;17.00
27747;DHT22;15138;51.012;4.692;2022-12-31T07:51:38;15.80;1.00
27747;DHT22;15138;51.012;4.692;2022-12-31T07:54:06;15.80;1.00
27747;DHT22;15138;51.012;4.692;2022-12-31T07:56:40;15.90;1.00
27747;DHT22;15138;51.012;4.692;2022-12-31T07:59:12;16.00;1.00
27747;DHT22;15138;51.012;4.692;2022-12-31T08:01:49;15.90;1.00
27747;DHT22;15138;51.012;4.692;2022-12-31T08:04:22;15.80;1.00
27747;DHT22;15138;51.012;4.692;2022-12-31T08:06:53;15.80;1.00
27747;DHT22;15138;51.012;4.692;2022-12-31T08:09:25;15.80;1.00
27747;DHT22;15138;51.012;4.692;2022-12-31T08:11:55;15.80;1.00
27747;DHT22;15138;51.012;4.692;2022-12-31T08:14:24;15.80;18.10
27747;DHT22;15138;51.012;4.692;2022-12-31T08:16:52;15.80;38.80
27747;DHT22;15138;51.012;4.692;2022-12-31T08:19:23;15.80;96.00
27747;DHT22;15138;51.012;4.692;2022-12-31T08:21:55;15.70;99.90
27747;DHT22;15138;51.012;4.692;2022-12-31T08:24:28;15.70;99.90
27747;DHT22;15138;51.012;4.692;2022-12-31T08:27:04;15.60;99.90
27747;DHT22;15138;51.012;4.692;2022-12-31T08:29:37;15.70;76.60
27747;DHT22;15138;51.012;4.692;2022-12-31T08:32:08;15.80;20.80
27747;DHT22;15138;51.012;4.692;2022-12-31T08:34:40;15.80;1.00
27747;DHT22;15138;51.012;4.692;2022-12-31T08:37:12;15.80;1.00
27747;DHT22;15138;51.012;4.692;2022-12-31T08:39:51;15.90;1.00
27747;DHT22;15138;51.012;4.692;2022-12-31T08:42:22;16.10;1.00
27747;DHT22;15138;51.012;4.692;2022-12-31T08:44:54;16.10;1.00
27747;DHT22;15138;51.012;4.692;2022-12-31T08:47:25;16.20;1.00
27747;DHT22;15138;51.012;4.692;2022-12-31T08:50:02;16.20;1.00
27747;DHT22;15138;51.012;4.692;2022-12-31T08:52:31;16.20;1.00
27747;DHT22;15138;51.012;4.692;2022-12-31T08:54:59;16.30;1.00
27747;DHT22;15138;51.012;4.692;2022-12-31T08:57:29;16.30;1.00
27747;DHT22;15138;51.012;4.692;2022-12-31T09:00:02;16.40;99.90
27747;DHT22;15138;51.012;4.692;2022-12-31T09:02:35;16.40;99.90
27747;DHT22;15138;51.012;4.692;2022-12-31T09:05:15;16.50;99.90
27747;DHT22;15138;51.012;4.692;2022-12-31T09:07:52;16.50;99.90
27747;DHT22;15138;51.012;4.692;2022-12-31T09:10:23;16.50;99.90
27747;DHT22;15138;51.012;4.692;2022-12-31T09:12:54;16.40;99.90
27747;DHT22;15138;51.012;4.692;2022-12-31T09:15:25;16.50;99.90
27747;DHT22;15138;51.012;4.692;2022-12-31T09:17:56;16.50;99.90
27747;DHT22;15138;51.012;4.692;2022-12-31T09:20:26;16.50;99.90
27747;DHT22;15138;51.012;4.692;2022-12-31T09:23:08;16.50;99.90
27747;DHT22;15138;51.012;4.692;2022-12-31T09:25:37;16.60;99.90
27747;DHT22;15138;51.012;4.692;2022-12-31T09:28:10;16.60;99.90
27747;DHT22;15138;51.012;4.692;2022-12-31T09:30:42;16.60;91.30
27747;DHT22;15138;51.012;4.692;2022-12-31T09:33:15;16.60;48.10
27747;DHT22;15138;51.012;4.692;2022-12-31T09:35:50;16.60;1.00
27747;DHT22;15138;51.012;4.692;2022-12-31T09:38:20;16.50;18.90
27747;DHT22;15138;51.012;4.692;2022-12-31T09:43:58;16.60;1.00
27747;DHT22;15138;51.012;4.692;2022-12-31T09:46:35;16.60;1.00
27747;DHT22;15138;51.012;4.692;2022-12-31T09:49:16;16.60;1.00
27747;DHT22;15138;51.012;4.692;2022-12-31T09:51:53;16.60;99.90
27747;DHT22;15138;51.012;4.692;2022-12-31T09:54:28;16.60;99.90
27747;DHT22;15138;51.012;4.692;2022-12-31T09:57:05;16.60;99.90
27747;DHT22;15138;51.012;4.692;2022-12-31T09:59:39;16.60;1.00
27747;DHT22;15138;51.012;4.692;2022-12-31T10:02:14;16.70;1.00
27747;DHT22;15138;51.012;4.692;2022-12-31T10:04:49;16.60;18.40
27747;DHT22;15138;51.012;4.692;2022-12-31T10:07:26;16.60;24.40
27747;DHT22;15138;51.012;4.692;2022-12-31T10:10:02;16.50;99.90
27747;DHT22;15138;51.012;4.692;2022-12-31T10:12:40;16.50;99.90
27747;DHT22;15138;51.012;4.692;2022-12-31T10:15:17;16.50;99.90
27747;DHT22;15138;51.012;4.692;2022-12-31T10:17:53;16.50;99.90
27747;DHT22;15138;51.012;4.692;2022-12-31T10:20:24;16.50;99.90
27747;DHT22;15138;51.012;4.692;2022-12-31T10:25:45;16.50;1.00
27747;DHT22;15138;51.012;4.692;2022-12-31T10:28:17;16.70;99.90
27747;DHT22;15138;51.012;4.692;2022-12-31T10:30:53;16.50;99.90
27747;DHT22;15138;51.012;4.692;2022-12-31T10:33:30;16.80;1.00
27747;DHT22;15138;51.012;4.692;2022-12-31T10:36:03;16.70;11.40
27747;DHT22;15138;51.012;4.692;2022-12-31T10:38:37;16.70;1.00
27747;DHT22;15138;51.012;4.692;2022-12-31T10:41:29;16.70;1.00
27747;DHT22;15138;51.012;4.692;2022-12-31T10:44:10;16.80;1.00
27747;DHT22;15138;51.012;4.692;2022-12-31T10:47:09;16.80;99.90
27747;DHT22;15138;51.012;4.692;2022-12-31T10:49:49;16.70;99.90
27747;DHT22;15138;51.012;4.692;2022-12-31T10:52:42;16.70;99.90
27747;DHT22;15138;51.012;4.692;2022-12-31T10:55:37;16.70;99.90
27747;DHT22;15138;51.012;4.692;2022-12-31T11:01:05;16.60;99.90
27747;DHT22;15138;51.012;4.692;2022-12-31T11:12:11;16.80;66.50
27747;DHT22;15138;51.012;4.692;2022-12-31T11:14:48;16.80;1.00
27747;DHT22;15138;51.012;4.692;2022-12-31T11:17:22;16.80;12.20
27747;DHT22;15138;51.012;4.692;2022-12-31T11:19:54;16.70;49.30
27747;DHT22;15138;51.012;4.692;2022-12-31T11:22:37;16.80;99.90
27747;DHT22;15138;51.012;4.692;2022-12-31T11:30:32;16.80;99.90
27747;DHT22;15138;51.012;4.692;2022-12-31T11:33:09;16.70;99.90
27747;DHT22;15138;51.012;4.692;2022-12-31T11:35:44;16.60;99.90
27747;DHT22;15138;51.012;4.692;2022-12-31T11:38:18;16.60;1.00
27747;DHT22;15138;51.012;4.692;2022-12-31T11:40:53;16.60;1.00
27747;DHT22;15138;51.012;4.692;2022-12-31T11:43:25;16.60;1.00
27747;DHT22;15138;51.012;4.692;2022-12-31T11:46:19;16.50;99.90
27747;DHT22;15138;51.012;4.692;2022-12-31T11:48:58;16.50;99.90
27747;DHT22;15138;51.012;4.692;2022-12-31T11:51:35;16.50;99.90
27747;DHT22;15138;51.012;4.692;2022-12-31T11:54:13;16.60;64.90
27747;DHT22;15138;51.012;4.692;2022-12-31T11:56:45;16.60;1.00
27747;DHT22;15138;51.012;4.692;2022-12-31T11:59:13;16.40;1.00
27747;DHT22;15138;51.012;4.692;2022-12-31T12:01:48;16.60;1.00
27747;DHT22;15138;51.012;4.692;2022-12-31T12:04:19;16.60;1.00
27747;DHT22;15138;51.012;4.692;2022-12-31T12:06:47;16.70;1.00
27747;DHT22;15138;51.012;4.692;2022-12-31T12:09:25;16.70;99.90
27747;DHT22;15138;51.012;4.692;2022-12-31T12:11:57;16.70;99.90
27747;DHT22;15138;51.012;4.692;2022-12-31T12:14:29;16.80;99.90
27747;DHT22;15138;51.012;4.692;2022-12-31T12:16:57;16.80;99.90
27747;DHT22;15138;51.012;4.692;2022-12-31T12:19:33;16.90;44.70
27747;DHT22;15138;51.012;4.692;2022-12-31T12:22:08;16.90;99.90
27747;DHT22;15138;51.012;4.692;2022-12-31T12:24:36;17.00;1.00
27747;DHT22;15138;51.012;4.692;2022-12-31T12:27:04;17.00;1.00
27747;DHT22;15138;51.012;4.692;2022-12-31T12:29:46;17.00;1.00
27747;DHT22;15138;51.012;4.692;2022-12-31T12:32:15;16.90;99.90
27747;DHT22;15138;51.012;4.692;2022-12-31T12:34:45;17.00;99.90
27747;DHT22;15138;51.012;4.692;2022-12-31T12:37:26;16.90;99.90
27747;DHT22;15138;51.012;4.692;2022-12-31T12:39:54;16.90;99.90
27747;DHT22;15138;51.012;4.692;2022-12-31T12:42:22;16.90;99.90
27747;DHT22;15138;51.012;4.692;2022-12-31T12:44:59;16.80;99.90
27747;DHT22;15138;51.012;4.692;2022-12-31T12:47:27;16.80;99.90
27747;DHT22;15138;51.012;4.692;2022-12-31T12:49:56;16.80;99.90
27747;DHT22;15138;51.012;4.692;2022-12-31T12:52:35;16.70;99.90
27747;DHT22;15138;51.012;4.692;2022-12-31T12:55:08;16.70;99.90
27747;DHT22;15138;51.012;4.692;2022-12-31T12:57:41;16.70;1.00
27747;DHT22;15138;51.012;4.692;2022-12-31T13:00:14;16.70;1.00
27747;DHT22;15138;51.012;4.692;2022-12-31T13:05:45;16.60;1.00
27747;DHT22;15138;51.012;4.692;2022-12-31T13:08:18;16.60;1.00
27747;DHT22;15138;51.012;4.692;2022-12-31T13:10:55;16.60;1.00
27747;DHT22;15138;51.012;4.692;2022-12-31T13:13:28;16.60;1.00
27747;DHT22;15138;51.012;4.692;2022-12-31T13:16:00;16.50;1.00
27747;DHT22;15138;51.012;4.692;2022-12-31T13:18:35;16.50;1.00
27747;DHT22;15138;51.012;4.692;2022-12-31T13:21:14;16.50;1.00
27747;DHT22;15138;51.012;4.692;2022-12-31T13:23:46;16.50;1.00
27747;DHT22;15138;51.012;4.692;2022-12-31T13:26:18;16.50;1.00
27747;DHT22;15138;51.012;4.692;2022-12-31T13:28:47;16.50;99.90
27747;DHT22;15138;51.012;4.692;2022-12-31T13:31:17;16.50;99.90
27747;DHT22;15138;51.012;4.692;2022-12-31T13:33:47;16.50;99.90
27747;DHT22;15138;51.012;4.692;2022-12-31T13:36:19;16.50;99.90
27747;DHT22;15138;51.012;4.692;2022-12-31T13:38:48;16.50;99.90
27747;DHT22;15138;51.012;4.692;2022-12-31T13:41:20;16.50;99.90
27747;DHT22;15138;51.012;4.692;2022-12-31T13:43:49;16.50;99.90
27747;DHT22;15138;51.012;4.692;2022-12-31T13:46:21;16.50;99.90
27747;DHT22;15138;51.012;4.692;2022-12-31T13:48:52;16.50;99.90
27747;DHT22;15138;51.012;4.692;2022-12-31T13:51:23;16.50;99.90
27747;DHT22;15138;51.012;4.692;2022-12-31T13:53:55;16.50;99.90
27747;DHT22;15138;51.012;4.692;2022-12-31T13:56:26;16.50;99.90
27747;DHT22;15138;51.012;4.692;2022-12-31T13:58:57;16.50;99.90
27747;DHT22;15138;51.012;4.692;2022-12-31T14:01:28;16.50;99.90
27747;DHT22;15138;51.012;4.692;2022-12-31T14:04:02;16.50;94.10
27747;DHT22;15138;51.012;4.692;2022-12-31T14:06:33;16.50;31.80
27747;DHT22;15138;51.012;4.692;2022-12-31T14:09:03;16.50;19.70
27747;DHT22;15138;51.012;4.692;2022-12-31T14:11:40;16.60;1.00
27747;DHT22;15138;51.012;4.692;2022-12-31T14:14:14;16.50;5.20
27747;DHT22;15138;51.012;4.692;2022-12-31T14:16:45;16.50;1.00
27747;DHT22;15138;51.012;4.692;2022-12-31T14:19:17;16.50;1.00
27747;DHT22;15138;51.012;4.692;2022-12-31T14:21:57;16.50;1.00
27747;DHT22;15138;51.012;4.692;2022-12-31T14:24:36;16.40;84.70
27747;DHT22;15138;51.012;4.692;2022-12-31T14:27:06;16.40;1.00
27747;DHT22;15138;51.012;4.692;2022-12-31T14:29:37;16.40;93.40
27747;DHT22;15138;51.012;4.692;2022-12-31T14:35:04;16.30;99.90
27747;DHT22;15138;51.012;4.692;2022-12-31T14:37:37;16.30;96.90
27747;DHT22;15138;51.012;4.692;2022-12-31T14:40:11;16.20;99.90
27747;DHT22;15138;51.012;4.692;2022-12-31T14:42:44;16.20;99.90
27747;DHT22;15138;51.012;4.692;2022-12-31T14:45:19;16.20;99.90
27747;DHT22;15138;51.012;4.692;2022-12-31T14:47:49;16.20;97.00
27747;DHT22;15138;51.012;4.692;2022-12-31T14:50:20;16.20;1.00
27747;DHT22;15138;51.012;4.692;2022-12-31T14:52:51;16.20;74.80
27747;DHT22;15138;51.012;4.692;2022-12-31T14:55:21;16.10;59.50
27747;DHT22;15138;51.012;4.692;2022-12-31T14:57:49;16.10;3.20
27747;DHT22;15138;51.012;4.692;2022-12-31T15:00:37;16.10;1.00
27747;DHT22;15138;51.012;4.692;2022-12-31T15:03:17;16.10;1.00
27747;DHT22;15138;51.012;4.692;2022-12-31T15:05:49;16.10;1.00
27747;DHT22;15138;51.012;4.692;2022-12-31T15:08:25;16.10;1.00
27747;DHT22;15138;51.012;4.692;2022-12-31T15:11:10;16.10;1.00
27747;DHT22;15138;51.012;4.692;2022-12-31T15:13:44;16.00;1.00
27747;DHT22;15138;51.012;4.692;2022-12-31T15:16:20;16.00;9.60
27747;DHT22;15138;51.012;4.692;2022-12-31T15:18:57;15.90;1.00
27747;DHT22;15138;51.012;4.692;2022-12-31T15:21:33;16.00;1.00
27747;DHT22;15138;51.012;4.692;2022-12-31T15:24:14;15.90;1.00
27747;DHT22;15138;51.012;4.692;2022-12-31T15:26:48;15.90;1.00
27747;DHT22;15138;51.012;4.692;2022-12-31T15:29:23;15.90;1.00
27747;DHT22;15138;51.012;4.692;2022-12-31T15:31:51;15.90;1.00
27747;DHT22;15138;51.012;4.692;2022-12-31T15:34:23;15.90;99.90
27747;DHT22;15138;51.012;4.692;2022-12-31T15:36:52;15.90;99.90
27747;DHT22;15138;51.012;4.692;2022-12-31T15:39:23;15.90;99.90
27747;DHT22;15138;51.012;4.692;2022-12-31T15:41:52;16.00;99.90
27747;DHT22;15138;51.012;4.692;2022-12-31T15:44:43;16.00;99.90
27747;DHT22;15138;51.012;4.692;2022-12-31T15:47:13;16.00;54.00
27747;DHT22;15138;51.012;4.692;2022-12-31T15:49:43;16.00;18.50
27747;DHT22;15138;51.012;4.692;2022-12-31T15:52:12;16.00;1.00
27747;DHT22;15138;51.012;4.692;2022-12-31T15:54:43;16.10;1.00
27747;DHT22;15138;51.012;4.692;2022-12-31T15:57:13;16.20;99.90
27747;DHT22;15138;51.012;4.692;2022-12-31T15:59:42;16.10;99.90
27747;DHT22;15138;51.012;4.692;2022-12-31T16:02:16;16.10;99.90
27747;DHT22;15138;51.012;4.692;2022-12-31T16:04:45;16.00;99.90
27747;DHT22;15138;51.012;4.692;2022-12-31T16:07:13;16.10;99.90
27747;DHT22;15138;51.012;4.692;2022-12-31T16:09:45;16.00;99.90
27747;DHT22;15138;51.012;4.692;2022-12-31T16:12:14;16.00;2.90
27747;DHT22;15138;51.012;4.692;2022-12-31T16:14:47;16.00;1.00
27747;DHT22;15138;51.012;4.692;2022-12-31T16:17:24;16.00;1.00
27747;DHT22;15138;51.012;4.692;2022-12-31T16:19:52;16.00;1.00
27747;DHT22;15138;51.012;4.692;2022-12-31T16:22:23;16.00;1.00
27747;DHT22;15138;51.012;4.692;2022-12-31T16:24:53;15.90;1.00
27747;DHT22;15138;51.012;4.692;2022-12-31T16:27:42;15.90;1.00
27747;DHT22;15138;51.012;4.692;2022-12-31T16:30:16;15.90;1.00
27747;DHT22;15138;51.012;4.692;2022-12-31T16:32:46;15.90;99.90
27747;DHT22;15138;51.012;4.692;2022-12-31T16:35:21;15.80;99.90
27747;DHT22;15138;51.012;4.692;2022-12-31T16:37:59;16.00;99.90
27747;DHT22;15138;51.012;4.692;2022-12-31T16:40:28;15.90;99.90
27747;DHT22;15138;51.012;4.692;2022-12-31T16:42:56;15.90;88.80
27747;DHT22;15138;51.012;4.692;2022-12-31T16:45:27;15.80;11.10
27747;DHT22;15138;51.012;4.692;2022-12-31T16:47:56;15.80;99.90
27747;DHT22;15138;51.012;4.692;2022-12-31T16:57:53;16.00;99.90
27747;DHT22;15138;51.012;4.692;2022-12-31T17:00:23;15.80;99.90
27747;DHT22;15138;51.012;4.692;2022-12-31T17:02:56;15.70;99.90
27747;DHT22;15138;51.012;4.692;2022-12-31T17:05:27;15.60;99.90
27747;DHT22;15138;51.012;4.692;2022-12-31T17:07:54;15.70;99.90
27747;DHT22;15138;51.012;4.692;2022-12-31T17:10:23;15.80;99.90
27747;DHT22;15138;51.012;4.692;2022-12-31T17:12:54;15.60;99.90
27747;DHT22;15138;51.012;4.692;2022-12-31T17:15:42;15.50;99.90
27747;DHT22;15138;51.012;4.692;2022-12-31T17:18:12;15.50;99.90
27747;DHT22;15138;51.012;4.692;2022-12-31T17:20:43;15.60;99.90
27747;DHT22;15138;51.012;4.692;2022-12-31T17:23:14;15.60;99.90
27747;DHT22;15138;51.012;4.692;2022-12-31T17:25:45;15.20;99.90
27747;DHT22;15138;51.012;4.692;2022-12-31T17:28:20;15.60;1.00
27747;DHT22;15138;51.012;4.692;2022-12-31T17:43:21;15.40;1.00